createdAt,value
2022-12-03T00:01:28.939Z,101031.09
2022-12-03T00:04:32.100Z,101033.13
2022-12-03T00:07:35.043Z,101028.66
2022-12-03T00:10:38.332Z,101030.88
2022-12-03T00:13:41.110Z,101040.81
2022-12-03T00:16:44.288Z,101041.59
2022-12-03T00:19:47.242Z,101035.53
2022-12-03T00:22:51.093Z,101039.56
2022-12-03T00:25:53.827Z,101038.38
2022-12-03T00:28:57.882Z,101042.03
2022-12-03T00:32:00.683Z,101056.78
2022-12-03T00:35:04.361Z,101059.19
2022-12-03T00:38:07.241Z,101055.97
2022-12-03T00:41:10.616Z,101053.34
2022-12-03T00:44:13.909Z,101048.06
2022-12-03T00:47:17.136Z,101058.38
2022-12-03T00:50:20.375Z,101053.75
2022-12-03T00:53:23.617Z,101060.19
2022-12-03T00:56:26.572Z,101068.66
2022-12-03T00:59:29.726Z,101058.22
2022-12-03T01:02:32.979Z,101061.25
2022-12-03T01:05:36.376Z,101060.22
2022-12-03T01:08:39.468Z,101065.69
2022-12-03T01:11:58.952Z,101057.78
2022-12-03T01:15:02.021Z,101061.19
2022-12-03T01:18:06.238Z,101056.97
2022-12-03T01:21:09.108Z,101060.59
2022-12-03T01:24:12.487Z,101059.38
2022-12-03T01:27:15.254Z,101051.13
2022-12-03T01:30:18.390Z,101059.81
2022-12-03T01:33:21.153Z,101060.22
2022-12-03T01:36:41.000Z,101059.81
2022-12-03T01:39:44.318Z,101062.38
2022-12-03T01:42:47.477Z,101053.72
2022-12-03T01:45:50.223Z,101044.44
2022-12-03T01:48:55.663Z,101042.41
2022-12-03T01:52:04.994Z,101045.25
2022-12-03T01:55:16.259Z,101048.84
2022-12-03T01:58:23.167Z,101057.16
2022-12-03T02:01:26.457Z,101058.16
2022-12-03T02:04:30.082Z,101059.81
2022-12-03T02:07:34.985Z,101047.88
2022-12-03T02:10:38.566Z,101045.25
2022-12-03T02:13:43.118Z,101057.97
2022-12-03T02:16:46.802Z,101050.69
2022-12-03T02:19:50.519Z,101056.16
2022-12-03T02:23:19.108Z,101045.62
2022-12-03T02:26:22.532Z,101044.41
2022-12-03T02:29:25.607Z,101044.22
2022-12-03T02:32:28.772Z,101046.84
2022-12-03T02:35:37.081Z,101048.06
2022-12-03T02:38:42.078Z,101047.84
2022-12-03T02:42:04.214Z,101050.09
2022-12-03T02:45:19.443Z,101054.84
2022-12-03T02:48:27.191Z,101056.94
2022-12-03T02:51:31.536Z,101053.31
2022-12-03T02:54:34.707Z,101050.47
2022-12-03T02:57:39.194Z,101055.97
2022-12-03T03:00:43.280Z,101067.84
2022-12-03T03:03:51.076Z,101058.59
2022-12-03T03:06:53.970Z,101060.19
2022-12-03T03:09:57.980Z,101052.31
2022-12-03T03:13:14.890Z,101053.34
2022-12-03T03:16:18.235Z,101059.38
2022-12-03T03:19:24.988Z,101061.81
2022-12-03T03:22:40.698Z,101052.31
2022-12-03T03:25:51.983Z,101055.72
2022-12-03T03:29:00.267Z,101050.47
2022-12-03T03:32:05.175Z,101050.72
2022-12-03T03:35:10.916Z,101047.66
2022-12-03T03:38:14.380Z,101048.50
2022-12-03T03:41:19.155Z,101047.66
2022-12-03T03:44:22.101Z,101033.72
2022-12-03T03:47:25.966Z,101044.03
2022-12-03T03:50:31.094Z,101042.59
2022-12-03T03:53:34.719Z,101045.06
2022-12-03T03:56:37.774Z,101050.31
2022-12-03T03:59:41.373Z,101040.41
2022-12-03T04:02:44.792Z,101048.06
2022-12-03T04:05:51.039Z,101038.38
2022-12-03T04:08:53.927Z,101049.28
2022-12-03T04:12:15.826Z,101041.22
2022-12-03T04:15:18.635Z,101039.38
2022-12-03T04:18:42.002Z,101055.34
2022-12-03T04:22:03.656Z,101040.22
2022-12-03T04:25:27.988Z,101039.97
2022-12-03T04:28:49.367Z,101043.44
2022-12-03T04:32:11.002Z,101047.69
2022-12-03T04:35:32.680Z,101058.59
2022-12-03T04:38:35.794Z,101048.66
2022-12-03T04:41:38.630Z,101044.84
2022-12-03T04:44:44.235Z,101056.56
2022-12-03T04:47:46.983Z,101051.28
2022-12-03T04:50:50.351Z,101056.12
2022-12-03T04:53:53.303Z,101054.53
2022-12-03T04:56:56.563Z,101055.75
2022-12-03T04:59:59.641Z,101060.81
2022-12-03T05:03:02.962Z,101061.78
2022-12-03T05:06:06.063Z,101062.59
2022-12-03T05:09:09.803Z,101069.00
2022-12-03T05:12:12.579Z,101073.06
2022-12-03T05:15:15.817Z,101069.41
2022-12-03T05:18:18.688Z,101075.75
2022-12-03T05:21:24.402Z,101074.75
2022-12-03T05:24:27.415Z,101089.62
2022-12-03T05:27:30.682Z,101095.88
2022-12-03T05:30:34.468Z,101102.53
2022-12-03T05:33:43.747Z,101097.84
2022-12-03T05:36:47.230Z,101085.78
2022-12-03T05:39:50.416Z,101080.25
2022-12-03T05:43:01.369Z,101084.09
2022-12-03T05:46:04.555Z,101094.75
2022-12-03T05:49:07.432Z,101083.16
2022-12-03T05:52:10.579Z,101082.06
2022-12-03T05:55:14.079Z,101088.28
2022-12-03T05:58:17.275Z,101099.66
2022-12-03T06:01:20.085Z,101099.84
2022-12-03T06:04:23.328Z,101099.69
2022-12-03T06:07:26.714Z,101099.06
2022-12-03T06:10:30.888Z,101093.59
2022-12-03T06:13:33.973Z,101088.37
2022-12-03T06:16:37.199Z,101071.63
2022-12-03T06:19:39.954Z,101071.84
2022-12-03T06:22:43.284Z,101080.78
2022-12-03T06:25:46.228Z,101077.72
2022-12-03T06:28:49.492Z,101086.22
2022-12-03T06:31:52.440Z,101093.31
2022-12-03T06:34:55.959Z,101089.88
2022-12-03T06:37:59.090Z,101093.34
2022-12-03T06:41:02.299Z,101079.62
2022-12-03T06:44:05.401Z,101096.62
2022-12-03T06:47:08.646Z,101107.69
2022-12-03T06:50:12.540Z,101095.41
2022-12-03T06:53:15.700Z,101102.69
2022-12-03T06:56:22.124Z,101105.69
2022-12-03T06:59:28.279Z,101102.69
2022-12-03T07:02:32.022Z,101094.37
2022-12-03T07:05:35.234Z,101101.87
2022-12-03T07:08:38.116Z,101118.03
2022-12-03T07:11:41.442Z,101120.88
2022-12-03T07:14:50.191Z,101133.00
2022-12-03T07:17:53.537Z,101118.47
2022-12-03T07:20:56.543Z,101116.44
2022-12-03T07:23:59.841Z,101103.91
2022-12-03T07:27:02.933Z,101102.28
2022-12-03T07:30:08.010Z,101105.50
2022-12-03T07:33:10.876Z,101091.37
2022-12-03T07:36:14.173Z,101095.22
2022-12-03T07:39:38.900Z,101100.66
2022-12-03T07:42:42.540Z,101120.50
2022-12-03T07:45:50.311Z,101121.72
2022-12-03T07:52:10.823Z,101121.13
2022-12-03T07:55:14.201Z,101120.31
2022-12-03T07:58:17.194Z,101115.84
2022-12-03T08:01:24.300Z,101119.69
2022-12-03T08:04:27.648Z,101117.66
2022-12-03T08:07:30.377Z,101114.06
2022-12-03T08:10:33.679Z,101107.97
2022-12-03T08:13:36.481Z,101104.13
2022-12-03T08:16:41.164Z,101102.72
2022-12-03T08:19:47.135Z,101100.28
2022-12-03T08:22:52.207Z,101097.66
2022-12-03T08:25:55.132Z,101116.69
2022-12-03T08:28:58.664Z,101121.34
2022-12-03T08:32:01.657Z,101122.31
2022-12-03T08:35:13.919Z,101130.62
2022-12-03T08:38:20.185Z,101135.09
2022-12-03T08:41:42.857Z,101144.19
2022-12-03T08:44:45.691Z,101149.47
2022-12-03T08:47:48.991Z,101141.19
2022-12-03T08:50:53.610Z,101138.75
2022-12-03T08:54:07.297Z,101131.87
2022-12-03T08:57:36.554Z,101134.09
2022-12-03T09:00:41.612Z,101123.75
2022-12-03T09:03:56.043Z,101123.38
2022-12-03T09:07:01.596Z,101127.81
2022-12-03T09:10:07.216Z,101128.84
2022-12-03T09:13:12.676Z,101131.69
2022-12-03T09:16:25.123Z,101129.44
2022-12-03T09:19:50.324Z,101116.47
2022-12-03T09:22:59.222Z,101117.66
2022-12-03T09:26:02.335Z,101129.41
2022-12-03T09:29:11.713Z,101120.09
2022-12-03T09:32:24.210Z,101126.19
2022-12-03T09:35:28.144Z,101121.31
2022-12-03T09:38:31.403Z,101114.81
2022-12-03T09:41:37.510Z,101118.72
2022-12-03T09:44:45.895Z,101100.69
2022-12-03T09:47:49.946Z,101106.78
2022-12-03T09:50:53.570Z,101108.75
2022-12-03T09:54:19.067Z,101104.44
2022-12-03T09:57:22.558Z,101103.50
2022-12-03T10:00:30.493Z,101099.22
2022-12-03T10:03:33.773Z,101104.22
2022-12-03T10:06:45.861Z,101096.78
2022-12-03T10:09:49.765Z,101100.63
2022-12-03T10:12:53.345Z,101088.47
2022-12-03T10:16:12.563Z,101081.56
2022-12-03T10:19:29.532Z,101088.69
2022-12-03T10:22:57.396Z,101080.81
2022-12-03T10:26:05.230Z,101068.97
2022-12-03T10:29:37.882Z,101068.19
2022-12-03T10:32:44.387Z,101061.91
2022-12-03T10:35:50.141Z,101055.38
2022-12-03T10:39:08.648Z,101061.38
2022-12-03T10:42:18.573Z,101057.28
2022-12-03T10:45:23.193Z,101058.50
2022-12-03T10:48:27.458Z,101053.69
2022-12-03T10:51:51.068Z,101054.00
2022-12-03T10:54:59.017Z,101054.06
2022-12-03T10:58:22.838Z,101046.94
2022-12-03T11:01:26.698Z,101039.44
2022-12-03T11:04:36.531Z,101043.47
2022-12-03T11:07:39.521Z,101036.59
2022-12-03T11:10:43.015Z,101018.75
2022-12-03T11:13:50.267Z,101029.87
2022-12-03T11:16:53.177Z,101021.56
2022-12-03T11:19:55.858Z,101010.97
2022-12-03T11:23:10.674Z,101010.03
2022-12-03T11:26:19.638Z,101007.00
2022-12-03T11:29:44.747Z,101013.50
2022-12-03T11:32:47.355Z,101010.19
2022-12-03T11:36:03.076Z,101014.47
2022-12-03T11:39:08.484Z,101010.63
2022-12-03T11:42:40.727Z,101016.28
2022-12-03T11:45:43.898Z,101005.31
2022-12-03T11:48:47.979Z,100992.97
2022-12-03T11:51:51.559Z,100999.16
2022-12-03T11:54:59.582Z,100990.38
2022-12-03T11:58:05.768Z,100984.09
2022-12-03T12:01:08.855Z,100980.00
2022-12-03T12:04:33.016Z,100983.25
2022-12-03T12:07:36.925Z,100980.75
2022-12-03T12:10:44.053Z,100985.97
2022-12-03T12:13:55.723Z,100978.22
2022-12-03T12:17:03.756Z,100984.47
2022-12-03T12:20:12.334Z,100982.78
2022-12-03T12:23:32.688Z,100974.47
2022-12-03T12:59:42.740Z,100960.91
2022-12-03T13:02:58.011Z,100966.75
2022-12-03T13:06:02.631Z,100962.72
2022-12-03T13:09:17.935Z,100946.97
2022-12-03T13:12:29.731Z,100949.97
2022-12-03T13:16:04.002Z,100950.59
2022-12-03T13:19:24.752Z,100942.78
2022-12-03T13:22:47.103Z,100940.28
2022-12-03T13:26:02.299Z,100942.37
2022-12-03T13:29:22.087Z,100942.97
2022-12-03T13:32:32.036Z,100945.84
2022-12-03T13:35:36.342Z,100945.25
2022-12-03T13:38:40.127Z,100942.66
2022-12-03T13:42:02.611Z,100938.28
2022-12-03T13:45:25.049Z,100941.22
2022-12-03T13:48:37.093Z,100942.59
2022-12-03T13:51:49.485Z,100952.34
2022-12-03T13:54:55.239Z,100960.28
2022-12-03T13:58:07.188Z,100959.97
2022-12-03T14:01:14.887Z,100960.56
2022-12-03T14:04:18.095Z,100947.78
2022-12-03T14:07:23.101Z,100952.50
2022-12-03T14:10:36.565Z,100955.78
2022-12-03T14:13:47.541Z,100943.62
2022-12-03T14:17:13.277Z,100948.31
2022-12-03T14:20:17.460Z,100959.09
2022-12-03T14:23:25.951Z,100955.28
2022-12-03T14:26:28.634Z,100966.34
2022-12-03T14:29:31.888Z,100969.13
2022-12-03T14:32:35.153Z,100964.84
2022-12-03T14:39:43.198Z,100960.84
2022-12-03T14:42:46.131Z,100959.63
2022-12-03T14:46:00.434Z,100952.75
2022-12-03T14:49:07.334Z,100965.44
2022-12-03T14:52:12.523Z,100967.59
2022-12-03T14:55:29.044Z,100969.63
2022-12-03T14:58:34.328Z,100975.87
2022-12-03T16:26:59.744Z,100987.91
2022-12-03T16:33:27.773Z,100983.63
2022-12-03T16:36:47.434Z,100975.94
2022-12-03T16:39:50.897Z,100976.34
2022-12-03T16:42:53.698Z,100966.28
2022-12-03T16:46:10.095Z,100968.84
2022-12-03T16:49:13.140Z,100968.38
2022-12-03T16:52:17.048Z,100958.69
2022-12-03T16:55:20.582Z,100962.84
2022-12-03T16:58:24.083Z,100959.19
2022-12-03T17:01:42.342Z,100958.75
2022-12-03T17:08:30.668Z,100958.53
2022-12-03T17:11:41.232Z,100963.00
2022-12-03T17:14:44.158Z,100975.97
2022-12-03T17:17:47.240Z,100964.88
2022-12-03T17:20:50.202Z,100969.94
2022-12-03T17:23:53.671Z,100964.31
2022-12-03T17:30:28.229Z,100964.28
2022-12-03T17:33:43.988Z,100974.44
2022-12-03T17:37:07.092Z,100972.41
2022-12-03T18:38:15.669Z,100969.53
2022-12-03T18:41:23.734Z,100969.37
2022-12-03T18:44:27.578Z,100967.97
2022-12-03T18:47:31.395Z,100958.66
2022-12-03T18:50:34.085Z,100961.09
2022-12-03T18:53:37.107Z,100970.81
2022-12-03T18:56:41.440Z,100970.19
2022-12-03T18:59:45.915Z,100972.84
2022-12-03T19:03:04.688Z,100973.25
2022-12-03T19:06:18.921Z,100967.56
2022-12-03T19:09:22.164Z,100969.19
2022-12-03T19:12:25.861Z,100972.00
2022-12-03T19:15:28.742Z,100974.62
2022-12-03T19:18:32.066Z,100981.72
2022-12-03T19:21:35.288Z,100983.34
2022-12-03T19:24:38.341Z,100986.81
2022-12-03T19:27:41.173Z,100991.25
2022-12-03T19:30:44.181Z,100996.47
2022-12-03T19:33:47.529Z,100997.31
2022-12-03T19:36:50.555Z,101000.38
2022-12-03T19:39:54.560Z,100990.63
2022-12-03T19:42:57.764Z,101002.97
2022-12-03T19:46:10.309Z,101005.19
2022-12-03T19:49:13.396Z,101004.22
2022-12-03T19:52:16.248Z,101011.28
2022-12-03T19:55:19.721Z,101005.41
2022-12-03T19:58:22.486Z,101007.22
2022-12-03T20:01:28.346Z,101006.75
2022-12-03T20:04:31.329Z,101006.59
2022-12-03T20:07:33.990Z,101005.97
2022-12-03T20:10:37.040Z,101005.19
2022-12-03T20:13:40.005Z,101010.25
2022-12-03T20:16:44.353Z,101001.53
2022-12-03T20:19:47.189Z,101002.97
2022-12-03T20:22:50.212Z,101007.41
2022-12-03T20:25:52.953Z,101020.00
2022-12-03T20:28:57.090Z,101015.31
2022-12-03T20:32:45.089Z,101010.25
2022-12-03T20:35:53.085Z,100999.31
2022-12-03T20:38:59.042Z,101000.75
2022-12-03T20:42:02.007Z,100992.84
2022-12-03T20:45:06.533Z,100994.69
2022-12-03T20:48:09.754Z,100991.00
2022-12-03T20:51:15.440Z,100994.84
2022-12-03T20:54:18.980Z,100999.13
2022-12-03T20:57:21.630Z,100988.16
2022-12-03T21:00:24.871Z,100991.78
2022-12-03T21:03:28.073Z,100993.78
2022-12-03T21:06:34.217Z,100984.44
2022-12-03T21:09:37.474Z,100978.97
2022-12-03T21:12:40.521Z,100967.81
2022-12-03T21:15:44.204Z,100975.50
2022-12-03T21:19:27.468Z,100968.25
2022-12-03T21:22:30.113Z,100968.66
2022-12-03T21:25:38.200Z,100973.78
2022-12-03T21:28:44.048Z,100966.59
2022-12-03T21:31:47.398Z,100961.94
2022-12-03T21:35:10.263Z,100967.06
2022-12-03T21:38:13.181Z,100964.88
2022-12-03T21:41:16.836Z,100971.88
2022-12-03T21:44:19.857Z,100971.47
2022-12-03T21:47:22.882Z,100968.66
2022-12-03T21:50:29.563Z,100980.00
2022-12-03T21:53:36.891Z,100967.62
2022-12-03T21:56:43.545Z,100976.16
2022-12-03T21:59:46.153Z,100983.50
2022-12-03T22:02:49.205Z,100974.81
2022-12-03T22:05:52.257Z,100980.69
2022-12-03T22:08:55.090Z,100977.22
2022-12-03T22:12:01.330Z,100986.03
2022-12-03T22:15:04.475Z,100967.91
2022-12-03T22:18:07.453Z,100970.00
2022-12-03T22:21:13.426Z,100964.75
2022-12-03T22:24:16.566Z,100966.31
2022-12-03T22:27:19.205Z,100973.19
2022-12-03T22:30:22.209Z,100968.56
2022-12-03T23:02:39.806Z,100953.84
2022-12-03T23:05:45.600Z,100950.84
2022-12-03T23:08:48.481Z,100953.66
2022-12-03T23:11:51.468Z,100948.63
2022-12-03T23:14:55.232Z,100956.06
2022-12-03T23:17:58.737Z,100938.47
2022-12-03T23:21:01.371Z,100944.75
2022-12-03T23:24:05.907Z,100931.22
2022-12-03T23:27:08.551Z,100938.69
2022-12-03T23:30:14.463Z,100934.25
2022-12-03T23:33:17.204Z,100940.94
2022-12-03T23:36:22.086Z,100934.84
2022-12-03T23:39:24.730Z,100941.13
2022-12-03T23:42:27.661Z,100933.84
2022-12-03T23:45:30.237Z,100932.63
2022-12-03T23:48:33.381Z,100929.19
2022-12-03T23:51:36.495Z,100927.97
2022-12-03T23:54:39.370Z,100928.41
2022-12-03T23:57:41.909Z,100918.69
